createdAt,value
2022-08-17T00:01:28.960Z,27.80
2022-08-17T00:10:01.225Z,27.70
2022-08-17T00:12:50.316Z,27.60
2022-08-17T00:15:39.587Z,27.60
2022-08-17T00:18:53.849Z,27.60
2022-08-17T00:22:32.623Z,27.40
2022-08-17T00:24:52.028Z,27.30
2022-08-17T00:27:41.363Z,27.40
2022-08-17T00:30:30.694Z,27.50
2022-08-17T00:33:40.537Z,27.40
2022-08-17T00:36:30.080Z,27.20
2022-08-17T00:39:19.845Z,26.90
2022-08-17T00:42:16.326Z,26.80
2022-08-17T00:45:06.905Z,26.80
2022-08-17T00:47:55.942Z,26.90
2022-08-17T00:50:51.402Z,27.00
2022-08-17T00:53:43.894Z,27.00
2022-08-17T00:56:37.777Z,27.00
2022-08-17T00:59:32.669Z,26.90
2022-08-17T01:02:23.006Z,26.80
2022-08-17T01:05:18.494Z,26.80
2022-08-17T01:08:10.574Z,26.90
2022-08-17T01:11:02.797Z,26.90
2022-08-17T01:13:52.084Z,26.90
2022-08-17T01:16:43.005Z,26.90
2022-08-17T01:19:36.424Z,26.80
2022-08-17T01:22:28.027Z,26.80
2022-08-17T01:25:18.771Z,26.70
2022-08-17T01:28:08.220Z,26.60
2022-08-17T01:30:59.634Z,26.60
2022-08-17T01:33:48.976Z,26.70
2022-08-17T01:36:38.117Z,26.70
2022-08-17T01:39:31.632Z,26.70
2022-08-17T01:42:25.286Z,26.60
2022-08-17T01:45:18.376Z,26.60
2022-08-17T01:48:08.292Z,26.70
2022-08-17T01:50:57.370Z,26.60
2022-08-17T01:53:51.088Z,26.60
2022-08-17T01:56:47.252Z,26.60
2022-08-17T01:59:36.789Z,26.60
2022-08-17T02:02:30.557Z,26.60
2022-08-17T02:05:21.573Z,26.60
2022-08-17T02:08:19.805Z,26.60
2022-08-17T02:11:11.951Z,26.60
2022-08-17T02:14:04.230Z,26.60
2022-08-17T02:16:53.171Z,26.50
2022-08-17T02:19:42.436Z,26.40
2022-08-17T02:22:31.517Z,26.30
2022-08-17T02:25:23.099Z,26.20
2022-08-17T02:28:12.645Z,26.20
2022-08-17T02:31:07.803Z,26.10
2022-08-17T02:34:04.486Z,25.90
2022-08-17T02:36:54.463Z,25.90
2022-08-17T02:39:44.073Z,25.80
2022-08-17T02:42:35.836Z,25.80
2022-08-17T02:45:26.967Z,25.80
2022-08-17T02:48:30.843Z,25.70
2022-08-17T02:51:20.454Z,25.70
2022-08-17T02:54:40.538Z,25.80
2022-08-17T02:57:19.056Z,25.80
2022-08-17T03:00:12.390Z,25.90
2022-08-17T03:03:02.379Z,26.00
2022-08-17T03:05:53.579Z,26.10
2022-08-17T03:08:43.375Z,26.20
2022-08-17T03:11:32.693Z,26.10
2022-08-17T03:14:21.757Z,26.00
2022-08-17T03:17:17.360Z,25.90
2022-08-17T03:20:07.438Z,25.90
2022-08-17T03:23:02.769Z,26.00
2022-08-17T03:25:53.403Z,26.00
2022-08-17T03:28:43.063Z,26.00
2022-08-17T03:31:32.740Z,26.10
2022-08-17T03:34:26.472Z,26.00
2022-08-17T03:37:16.023Z,26.00
2022-08-17T03:40:08.188Z,26.00
2022-08-17T03:42:58.115Z,26.00
2022-08-17T03:46:28.659Z,26.00
2022-08-17T03:49:41.118Z,26.00
2022-08-17T03:52:47.688Z,26.00
2022-08-17T03:55:59.672Z,26.00
2022-08-17T03:58:48.996Z,26.00
2022-08-17T04:01:38.301Z,26.00
2022-08-17T04:04:27.960Z,26.00
2022-08-17T04:07:17.237Z,25.90
2022-08-17T04:10:07.171Z,25.90
2022-08-17T04:12:58.828Z,25.80
2022-08-17T04:18:39.207Z,25.60
2022-08-17T04:21:29.101Z,25.60
2022-08-17T04:24:18.118Z,25.60
2022-08-17T04:27:07.551Z,25.50
2022-08-17T04:41:53.782Z,25.10
2022-08-17T04:44:42.817Z,25.00
2022-08-17T04:47:33.483Z,25.00
2022-08-17T04:50:23.220Z,25.10
2022-08-17T04:53:12.529Z,25.10
2022-08-17T04:56:01.791Z,25.00
2022-08-17T04:58:52.369Z,25.10
2022-08-17T05:01:44.029Z,25.10
2022-08-17T05:04:35.494Z,25.20
2022-08-17T05:07:27.248Z,25.30
2022-08-17T05:10:20.257Z,25.30
2022-08-17T05:13:10.882Z,25.50
2022-08-17T05:16:02.529Z,25.60
2022-08-17T05:18:52.521Z,25.70
2022-08-17T05:21:44.617Z,25.80
2022-08-17T05:24:42.643Z,26.00
2022-08-17T05:27:35.445Z,26.00
2022-08-17T05:30:25.336Z,26.10
2022-08-17T05:33:18.036Z,26.20
2022-08-17T05:36:09.278Z,26.10
2022-08-17T05:39:19.747Z,26.00
2022-08-17T05:42:08.943Z,26.10
2022-08-17T05:45:00.165Z,26.10
2022-08-17T05:47:49.714Z,26.00
2022-08-17T05:50:49.928Z,26.00
2022-08-17T05:53:44.238Z,25.90
2022-08-17T05:56:52.079Z,25.60
2022-08-17T05:59:55.768Z,25.70
2022-08-17T06:02:58.610Z,25.80
2022-08-17T06:06:00.470Z,25.80
2022-08-17T06:08:55.138Z,25.80
2022-08-17T06:11:53.540Z,25.90
2022-08-17T06:14:59.144Z,25.90
2022-08-17T06:17:48.480Z,26.00
2022-08-17T06:20:46.471Z,26.10
2022-08-17T06:23:38.763Z,26.20
2022-08-17T06:26:42.805Z,26.30
2022-08-17T06:29:41.259Z,26.30
2022-08-17T06:35:32.032Z,26.50
2022-08-17T06:38:37.579Z,26.60
2022-08-17T06:41:38.126Z,26.70
2022-08-17T06:44:43.371Z,26.80
2022-08-17T06:47:48.820Z,26.90
2022-08-17T06:50:42.089Z,26.90
2022-08-17T06:53:40.201Z,26.80
2022-08-17T06:56:54.294Z,27.00
2022-08-17T06:59:56.180Z,27.10
2022-08-17T07:02:53.550Z,27.20
2022-08-17T07:05:47.097Z,27.20
2022-08-17T07:08:47.409Z,27.20
2022-08-17T07:11:41.072Z,27.30
2022-08-17T07:14:36.809Z,27.20
2022-08-17T07:17:47.869Z,27.30
2022-08-17T07:20:42.802Z,27.30
2022-08-17T07:23:40.325Z,27.40
2022-08-17T07:29:20.812Z,27.80
2022-08-17T07:32:11.557Z,27.90
2022-08-17T07:35:12.320Z,28.00
2022-08-17T07:38:25.259Z,28.10
2022-08-17T07:41:15.806Z,28.20
2022-08-17T07:44:05.357Z,28.20
2022-08-17T07:47:13.223Z,28.30
2022-08-17T07:50:02.636Z,28.30
2022-08-17T07:52:52.497Z,28.30
2022-08-17T07:55:44.397Z,28.20
2022-08-17T07:58:33.639Z,28.20
2022-08-17T08:01:22.599Z,28.30
2022-08-17T08:04:58.835Z,28.30
2022-08-17T08:07:54.328Z,28.30
2022-08-17T08:10:45.591Z,28.20
2022-08-17T08:13:36.179Z,28.20
2022-08-17T08:16:29.371Z,28.10
2022-08-17T08:19:21.114Z,28.00
2022-08-17T08:22:16.104Z,28.10
2022-08-17T08:25:19.754Z,28.20
2022-08-17T08:28:21.418Z,28.20
2022-08-17T08:31:18.159Z,28.30
2022-08-17T08:35:00.911Z,28.30
2022-08-17T08:37:42.490Z,28.30
2022-08-17T08:43:38.196Z,28.50
2022-08-17T08:46:36.478Z,28.50
2022-08-17T08:50:05.750Z,28.50
2022-08-17T08:53:14.569Z,28.50
2022-08-17T08:56:08.835Z,28.50
2022-08-17T08:59:08.947Z,28.60
2022-08-17T09:02:05.067Z,28.60
2022-08-17T09:05:14.380Z,28.70
2022-08-17T09:08:10.767Z,28.70
2022-08-17T09:11:06.395Z,28.80
2022-08-17T09:14:21.332Z,29.00
2022-08-17T09:17:16.439Z,29.00
2022-08-17T09:20:27.221Z,28.90
2022-08-17T09:23:32.494Z,29.00
2022-08-17T09:26:25.579Z,29.00
2022-08-17T09:29:24.645Z,29.10
2022-08-17T09:32:21.187Z,29.10
2022-08-17T09:35:16.288Z,29.20
2022-08-17T09:38:13.394Z,29.30
2022-08-17T09:44:07.683Z,29.40
2022-08-17T09:47:12.723Z,29.40
2022-08-17T09:50:07.843Z,29.40
2022-08-17T09:52:59.943Z,29.60
2022-08-17T09:56:02.874Z,29.50
2022-08-17T09:59:17.328Z,29.50
2022-08-17T10:02:26.774Z,29.60
2022-08-17T10:05:22.407Z,29.60
2022-08-17T10:08:23.219Z,29.60
2022-08-17T10:11:48.346Z,29.70
2022-08-17T10:14:45.184Z,29.80
2022-08-17T10:24:01.704Z,29.90
2022-08-17T10:26:56.380Z,30.00
2022-08-17T10:29:49.982Z,30.10
2022-08-17T10:35:41.144Z,30.20
2022-08-17T10:38:40.597Z,30.30
2022-08-17T10:41:38.185Z,30.30
2022-08-17T10:44:45.886Z,30.40
2022-08-17T10:48:04.323Z,30.30
2022-08-17T10:51:07.744Z,30.30
2022-08-17T10:54:02.161Z,30.30
2022-08-17T10:56:53.839Z,30.30
2022-08-17T10:59:52.424Z,30.30
2022-08-17T11:02:49.887Z,30.30
2022-08-17T11:05:54.121Z,30.30
2022-08-17T11:09:16.759Z,30.30
2022-08-17T11:12:19.882Z,30.40
2022-08-17T11:15:23.794Z,30.40
2022-08-17T11:18:34.062Z,30.30
2022-08-17T11:21:52.935Z,30.30
2022-08-17T11:24:48.203Z,30.30
2022-08-17T11:27:38.393Z,30.20
2022-08-17T11:30:52.534Z,30.20
2022-08-17T11:33:56.867Z,30.30
2022-08-17T11:37:26.570Z,30.30
2022-08-17T11:40:46.573Z,30.40
2022-08-17T11:44:05.710Z,30.60
2022-08-17T11:47:27.023Z,30.70
2022-08-17T11:50:55.201Z,30.70
2022-08-17T11:54:31.274Z,30.70
2022-08-17T11:58:01.184Z,30.60
2022-08-17T12:01:01.274Z,30.60
2022-08-17T12:03:59.014Z,30.60
2022-08-17T12:06:51.727Z,30.60
2022-08-17T12:09:45.648Z,30.60
2022-08-17T12:12:35.924Z,30.70
2022-08-17T12:15:31.797Z,30.70
2022-08-17T12:18:24.793Z,30.70
2022-08-17T12:21:37.122Z,30.70
2022-08-17T12:24:37.821Z,30.80
2022-08-17T12:27:47.765Z,30.80
2022-08-17T12:30:41.004Z,30.90
2022-08-17T12:33:32.403Z,30.90
2022-08-17T12:36:26.215Z,30.90
2022-08-17T12:39:21.599Z,30.90
2022-08-17T12:42:25.197Z,30.90
2022-08-17T12:45:25.032Z,30.90
2022-08-17T12:48:22.980Z,30.90
2022-08-17T12:51:14.663Z,30.90
2022-08-17T12:54:03.840Z,30.80
2022-08-17T12:56:53.244Z,30.90
2022-08-17T12:59:45.249Z,30.80
2022-08-17T13:02:47.591Z,30.80
2022-08-17T13:05:39.658Z,30.70
2022-08-17T13:08:35.779Z,30.70
2022-08-17T13:11:26.720Z,30.60
2022-08-17T13:14:18.718Z,30.50
2022-08-17T13:17:13.351Z,30.50
2022-08-17T13:20:05.057Z,30.50
2022-08-17T13:22:59.589Z,30.40
2022-08-17T13:25:56.963Z,30.40
2022-08-17T13:28:50.040Z,30.40
2022-08-17T13:31:52.128Z,30.40
2022-08-17T13:35:12.115Z,30.40
2022-08-17T13:38:02.773Z,30.40
2022-08-17T13:40:54.549Z,30.50
2022-08-17T13:43:46.657Z,30.50
2022-08-17T13:46:36.545Z,30.40
2022-08-17T13:49:26.560Z,30.40
2022-08-17T15:23:47.139Z,30.90
2022-08-17T15:26:38.371Z,30.80
2022-08-17T15:29:27.517Z,30.60
2022-08-17T15:32:28.058Z,30.50
2022-08-17T15:35:17.257Z,30.50
2022-08-17T15:38:11.999Z,30.50
2022-08-17T15:41:03.799Z,30.40
2022-08-17T15:43:52.896Z,30.40
2022-08-17T15:46:42.050Z,30.30
2022-08-17T15:49:31.152Z,30.30
2022-08-17T15:52:24.049Z,30.20
2022-08-17T15:55:14.606Z,30.10
2022-08-17T15:58:05.189Z,30.00
2022-08-17T16:01:14.383Z,29.90
2022-08-17T16:04:12.185Z,29.90
2022-08-17T16:07:13.268Z,29.90
2022-08-17T16:10:02.525Z,29.80
2022-08-17T16:12:53.623Z,29.70
2022-08-17T16:15:44.494Z,29.60
2022-08-17T16:18:33.894Z,29.60
2022-08-17T16:21:31.153Z,29.60
2022-08-17T16:24:35.400Z,29.50
2022-08-17T16:27:24.811Z,29.40
2022-08-17T16:30:17.713Z,29.40
2022-08-17T16:33:08.036Z,29.30
2022-08-17T16:35:57.111Z,29.10
2022-08-17T16:44:34.488Z,27.90
2022-08-17T16:47:23.714Z,27.40
2022-08-17T16:53:08.066Z,26.00
2022-08-17T16:55:57.376Z,25.70
2022-08-17T16:58:46.858Z,25.80
2022-08-17T17:01:42.055Z,25.90
2022-08-17T17:04:35.188Z,25.80
2022-08-17T17:07:49.937Z,25.80
2022-08-17T17:10:43.626Z,25.80
2022-08-17T17:13:38.515Z,25.80
2022-08-17T17:16:36.544Z,25.70
2022-08-17T17:19:34.985Z,25.70
2022-08-17T17:22:31.745Z,25.80
2022-08-17T17:25:28.364Z,26.10
2022-08-17T17:28:25.215Z,26.30
2022-08-17T17:31:17.187Z,26.50
2022-08-17T17:34:11.633Z,26.60
2022-08-17T17:37:06.155Z,26.70
2022-08-17T17:39:59.342Z,26.70
2022-08-17T17:42:53.386Z,26.80
2022-08-17T17:45:47.322Z,26.90
2022-08-17T17:48:37.489Z,26.90
2022-08-17T17:52:06.887Z,27.00
2022-08-17T17:55:00.238Z,26.90
2022-08-17T17:58:04.888Z,26.70
2022-08-17T18:00:59.953Z,26.70
2022-08-17T18:04:01.604Z,26.50
2022-08-17T18:07:17.155Z,26.30
2022-08-17T18:10:29.634Z,26.20
2022-08-17T18:13:29.910Z,26.10
2022-08-17T18:16:19.291Z,26.20
2022-08-17T18:19:12.610Z,26.30
2022-08-17T18:22:14.271Z,26.50
2022-08-17T18:25:04.006Z,26.70
2022-08-17T18:27:54.604Z,26.70
2022-08-17T18:30:45.148Z,26.70
2022-08-17T18:33:34.415Z,26.60
2022-08-17T18:36:31.495Z,26.60
2022-08-17T18:39:23.188Z,26.60
2022-08-17T18:42:27.234Z,26.50
2022-08-17T18:45:34.952Z,26.40
2022-08-17T18:48:32.837Z,26.50
2022-08-17T18:51:40.584Z,26.60
2022-08-17T18:54:32.605Z,26.70
2022-08-17T18:57:30.793Z,26.70
2022-08-17T19:00:31.849Z,26.80
2022-08-17T19:03:27.587Z,26.80
2022-08-17T19:06:27.223Z,26.70
2022-08-17T19:09:34.230Z,26.60
2022-08-17T19:12:29.357Z,26.50
2022-08-17T19:15:26.459Z,26.50
2022-08-17T19:18:19.941Z,26.50
2022-08-17T19:21:15.691Z,26.50
2022-08-17T19:24:11.332Z,26.40
2022-08-17T19:27:18.778Z,26.40
2022-08-17T19:30:14.817Z,26.40
2022-08-17T19:33:04.620Z,26.20
2022-08-17T19:36:03.128Z,26.10
2022-08-17T19:39:01.229Z,26.00
2022-08-17T19:41:58.352Z,26.00
2022-08-17T19:44:56.659Z,26.10
2022-08-17T19:47:55.580Z,26.10
2022-08-17T19:50:52.219Z,26.00
2022-08-17T19:54:07.129Z,26.00
2022-08-17T19:57:04.402Z,25.90
2022-08-17T20:00:01.199Z,25.80
2022-08-17T20:02:58.075Z,25.60
2022-08-17T20:06:11.384Z,25.60
2022-08-17T20:09:05.432Z,25.60
2022-08-17T20:12:12.327Z,25.60
2022-08-17T20:15:06.468Z,25.60
2022-08-17T20:17:59.012Z,25.40
2022-08-17T20:23:54.727Z,25.00
2022-08-17T20:26:58.129Z,25.00
2022-08-17T20:30:07.760Z,24.90
2022-08-17T20:32:58.806Z,24.80
2022-08-17T20:36:13.859Z,24.90
2022-08-17T20:39:03.079Z,24.90
2022-08-17T20:42:07.307Z,25.00
2022-08-17T20:44:58.940Z,25.00
2022-08-17T20:48:18.672Z,25.20
2022-08-17T20:51:15.152Z,25.10
2022-08-17T20:54:31.392Z,25.20
2022-08-17T20:57:45.873Z,25.30
2022-08-17T21:00:47.123Z,25.30
2022-08-17T21:03:51.809Z,25.30
2022-08-17T21:07:17.662Z,25.40
2022-08-17T21:10:16.193Z,25.30
2022-08-17T21:13:40.706Z,25.40
2022-08-17T21:17:02.618Z,25.40
2022-08-17T21:20:17.636Z,25.50
2022-08-17T21:23:31.571Z,25.50
2022-08-17T21:26:31.755Z,25.50
2022-08-17T21:29:31.516Z,25.50
2022-08-17T21:32:31.219Z,25.50
2022-08-17T21:35:28.499Z,25.50
2022-08-17T21:38:19.680Z,25.40
2022-08-17T21:41:19.166Z,25.40
2022-08-17T21:44:21.817Z,25.30
2022-08-17T21:47:16.909Z,25.30
2022-08-17T21:50:17.939Z,25.30
2022-08-17T21:53:09.748Z,25.40
2022-08-17T21:55:58.741Z,25.40
2022-08-17T21:58:55.364Z,25.40
2022-08-17T22:01:44.822Z,25.10
2022-08-17T22:04:41.545Z,25.10
2022-08-17T22:07:39.871Z,25.20
2022-08-17T22:10:33.544Z,25.30
2022-08-17T22:13:24.822Z,25.30
2022-08-17T22:16:28.840Z,25.20
2022-08-17T22:19:21.350Z,25.20
2022-08-17T22:22:21.490Z,25.20
2022-08-17T22:25:23.064Z,25.10
2022-08-17T22:28:14.775Z,25.00
2022-08-17T22:31:05.831Z,25.00
2022-08-17T22:34:11.473Z,25.00
2022-08-17T22:37:27.234Z,25.00
2022-08-17T22:40:28.461Z,25.00
2022-08-17T22:43:25.934Z,25.00
2022-08-17T22:46:16.658Z,25.10
2022-08-17T22:49:07.952Z,25.20
2022-08-17T22:52:06.540Z,25.20
2022-08-17T22:55:21.145Z,25.20
2022-08-17T22:58:30.096Z,25.20
2022-08-17T23:01:29.803Z,25.20
2022-08-17T23:04:34.388Z,25.30
2022-08-17T23:07:23.967Z,25.20
2022-08-17T23:10:14.363Z,25.20
2022-08-17T23:13:03.474Z,25.20
2022-08-17T23:15:53.418Z,25.30
2022-08-17T23:18:44.698Z,25.20
2022-08-17T23:21:33.781Z,25.30
2022-08-17T23:24:29.587Z,25.30
2022-08-17T23:27:19.943Z,25.30
2022-08-17T23:30:10.885Z,25.20
2022-08-17T23:33:02.357Z,25.20
2022-08-17T23:35:53.784Z,25.20
2022-08-17T23:38:44.536Z,25.20
2022-08-17T23:41:38.152Z,25.10
2022-08-17T23:44:27.743Z,25.10
2022-08-17T23:47:17.252Z,25.10
2022-08-17T23:50:06.579Z,25.00
2022-08-17T23:52:57.635Z,25.00
2022-08-17T23:55:47.873Z,25.00
2022-08-17T23:58:58.239Z,25.00
